Weather at Portland International Airport

Public forecast

Using degrees Fahrenheit for public forecast. Weather courtesy of forecast.io.

Current aviation weather report (METAR) for Portland International Airport

Retrieved 2021/05/06 06:53 UTC (44 minutes ago):

KPDX 060653Z 12007KT 10SM CLR 22/02 A2983 RMK AO2 SLP099 T02170017

Aviation forecast (TAF) for Portland International Airport

Retrieved 2021/05/06 06:42 UTC (55 minutes ago):

TAF KPDX 060538Z 0606/0706 11009KT P6SM SCT120 BKN200 FM061000 11006KT P6SM SCT070 BKN100 FM061500 16009KT P6SM SCT040 BKN070 FM061800 18011KT P6SM VCSH BKN040 OVC070 FM062100 22011KT P6SM -SHRA BKN035 OVC050 FM070200 25007KT P6SM VCSH BKN040 BKN060